Nearby METAR Reports

 

KSJC - San Jose, California, USA
Distance from station: NE 14km
Actualizacin: 19/06/2019 15:53
Muy nuboso
Muy nuboso
 Viento del SSE
Viento: SSE 19 km/h
Temperatura: 15°C
Roco: 14°C
Humedad: 94%
Barmetro: 1013.9 hPa
Clouds: Muy nuboso
Visibility: 16 km
Cloud details: Few Clouds 30 m
Muy nuboso 305 m
2019/06/19 13:53 KSJC 191353Z 15010KT 10SM FEW001 BKN010 15/14 A2994 RMK AO2 SLP139 T01500139 $
KNUQ - Moffett Nas/Mtn, California, USA
Distance from station: N 14km
Actualizacin: 19/06/2019 15:56
Cubierto
Cubierto
 Viento del SE
Viento: SE 9 km/h
Temperatura: 17°C
Roco: 13°C
Humedad: 77%
Barmetro: 1014.2 hPa
Clouds: Cubierto
Visibility: 16 km
Cloud details: Cubierto 366 m
2019/06/19 13:56 KNUQ 191356Z 14005KT 10SM OVC012 17/13 A2995 RMK AO2 SLP143 T01670133
 
KPAO - Palo Alto, California, USA
Distance from station: NNO 23km
Actualizacin: 19/06/2019 15:47
Cubierto
Cubierto
 Viento del varies
Viento: varies 7 km/h
Temperatura: 16°C
Roco: 13°C
Humedad: 83%
Barmetro: 1013.9 hPa
Clouds: Cubierto
Visibility: 16 km
Cloud details: Cubierto 305 m
2019/06/19 13:47 KPAO 191347Z VRB04KT 10SM OVC010 16/13 A2994
KRHV - San Jose/Reid, California, USA
Distance from station: ENE 19km
Actualizacin: 19/06/2019 06:50
NOT Current
Despejado
Despejado
 Viento del O
Viento: O 7 km/h
Temperatura: 19°C
Roco: 14°C
Humedad: 73%
Barmetro: 1013.5 hPa
Clouds: Despejado
Visibility: 16 km
2019/06/19 04:50 KRHV 190450Z 28004KT 10SM SKC 19/14 A2993 RMK LAST
 
KOAK - Oakland, California, USA
Distance from station: NNO 50km
Actualizacin: 19/06/2019 15:53
Haze, Cubierto
Haze, Cubierto
 Viento del NNE
Viento: NNE 9 km/h
Temperatura: 16°C
Roco: 13°C
Humedad: 83%
Barmetro: 1014.2 hPa
Resumen: Haze
Clouds: Cubierto
Visibility: 8 km
Cloud details: Cubierto 244 m
2019/06/19 13:53 KOAK 191353Z 02005KT 5SM HZ OVC008 16/13 A2995 RMK AO2 SLP139 T01610128
KSQL - San Carlos Airpo, California, USA
Distance from station: NO 34km
Actualizacin: 19/06/2019 15:52
Cubierto
Cubierto
 Viento del calm
Viento: Calma
Temperatura: 16°C
Roco: 13°C
Humedad: 83%
Barmetro: 1014.2 hPa
Clouds: Cubierto
Visibility: 16 km
Cloud details: Cubierto 335 m
2019/06/19 13:52 KSQL 191352Z 00000KT 10SM OVC011 16/13 A2995
 
KSFO - San Francisco, California, USA
Distance from station: NO 49km
Actualizacin: 19/06/2019 15:56
Cubierto
Cubierto
 Viento del SSO
Viento: SSO 7 km/h
Temperatura: 16°C
Roco: 12°C
Humedad: 77%
Barmetro: 1013.9 hPa
Clouds: Cubierto
Visibility: 14 km
Cloud details: Cubierto 305 m
2019/06/19 13:56 KSFO 191356Z 20004KT 9SM OVC010 16/12 A2994 RMK AO2 SLP137 T01610122 $
KE16 - San Martin, California, USA
Distance from station: ESE 43km
Actualizacin: 30/05/2019 21:30
NOT Current

 Viento del SE
Viento: SE 9 km/h
Temperatura: 18°C
Roco: 11°C
Humedad: 64%
Barmetro: 1014.6 hPa
2019/05/30 19:30 KE16 301930Z AUTO 13005KT 18/11 A2996 RMK AO2 PWINO PNO
 
KWVI - Watsonville, California, USA
Distance from station: SSE 44km
Actualizacin: 19/06/2019 15:53
Cubierto
Cubierto
 Viento del ONO
Viento: ONO 7 km/h
Temperatura: 14°C
Roco: 13°C
Humedad: 94%
Barmetro: 1014.9 hPa
Clouds: Cubierto
Visibility: 13 km
Cloud details: Cubierto 213 m
2019/06/19 13:53 KWVI 191353Z AUTO 29004KT 8SM OVC007 14/13 A2997 RMK AO2 SLP149 T01440128 $
KHAF - Half Moon Bay, California, USA
Distance from station: ONO 50km
Actualizacin: 19/06/2019 16:35
Cubierto
Cubierto
 Viento del SE
Viento: SE 17 km/h
Temperatura: 14°C
Roco: 13°C
Humedad: 94%
Barmetro: 1014.6 hPa
Clouds: Cubierto
Visibility: 16 km
Cloud details: Cubierto 183 m
2019/06/19 14:35 KHAF 191435Z AUTO 14009KT 10SM OVC006 14/13 A2996 RMK AO2
 
KHWD - Hayward, California, USA
Distance from station: N 44km
Actualizacin: 19/06/2019 16:06
Cubierto
Cubierto
 Viento del calm
Viento: Calma
Temperatura: 16°C
Roco: 14°C
Humedad: 88%
Barmetro: 1013.9 hPa
Clouds: Cubierto
Visibility: 11 km
Cloud details: Cubierto 305 m
2019/06/19 14:06 KHWD 191406Z AUTO 00000KT 7SM OVC010 16/14 A2994 RMK AO2 T01610139
KLVK - Livermore, California, USA
Distance from station: NNE 51km
Actualizacin: 19/06/2019 15:53
Mist, Cubierto
Mist, Cubierto
 Viento del calm
Viento: Calma
Temperatura: 16°C
Roco: 14°C
Humedad: 88%
Barmetro: 1013.5 hPa
Resumen: Mist
Clouds: Cubierto
Visibility: 8 km
Cloud details: Cubierto 274 m
2019/06/19 13:53 KLVK 191353Z 00000KT 5SM BR OVC009 16/14 A2993 RMK AO2 SLP132 T01560139